Hidden Valley, Valles Caldera, New Mexico Weather observations

Data are for 10 minute period ending at time listed.
 Day   Time   Solar   Ave.   Ave.  Ave.  Vector  Max.   Baro.   Total    
  of    of     Rad.   Air    Rel.  Wind   Wind   Wind  Press.  Precip.   
Year   Day            Temp.  Hum.  Speed  Dir.   Gust                    
2017   (MST)  Kw/m2    F      %     mph   deg.    mph    mb.     in.     
-------------------------------------------------------------------------
  86   12:30   0.97   49.1    30    2.4   222     7.3   741.2    0.00 
  86   12:40   0.98   49.5    30    4.3   197     6.7   741.0    0.00 
  86   12:50   0.97   49.5    32    4.5   198     7.8   740.8    0.00 
  86   13:00   1.05   50.0    29    2.9   226     5.9   740.8    0.00 
  86   13:10   1.10   50.4    29    3.6   216     8.4   740.6    0.00 
  86   13:20   1.13   51.8    29    3.6   209     9.0   740.6    0.00 
  86   13:30   0.44   49.5    29    4.2   213     7.3   740.5    0.00 
  86   13:40   0.47   48.8    31    3.0   229     5.5   740.4    0.00 
  86   13:50   0.77   49.5    31    3.8   241     7.4   740.1    0.00 
  86   14:00   0.82   50.0    31    3.3   234     6.4   739.9    0.00 
  86   14:10   0.51   49.8    31    3.2   223     5.4   739.8    0.00 
  86   14:20   0.59   49.5    33    3.4   226     6.1   739.5    0.00 
  86   14:30   0.84   51.7    31    3.9   211     9.2   739.5    0.00 
  86   14:40   0.51   50.5    31    4.4   215     7.5   739.6    0.00 
  86   14:50   0.29   49.2    32    4.8   226     7.9   739.7    0.00 
  86   15:00   0.49   49.3    32    5.4   228     9.2   739.7    0.00 
  86   15:10   0.32   48.8    34    4.2   192     7.0   739.6    0.00 
  86   15:20   0.26   47.9    34    5.1   193     9.7   739.6    0.00 
  86   15:30   0.25   47.5    34    4.6   210     7.8   739.6    0.00 
  86   15:40   0.25   47.8    34    2.8   218     5.6   739.5    0.00 
  86   15:50   0.18   47.1    36    4.6   228     7.8   739.5    0.00 
  86   16:00   0.13   46.1    40    4.3   192     7.6   739.6    0.00 
  86   16:10   0.15   45.8    42    3.2   202     5.1   739.4    0.00 
  86   16:20   0.12   45.9    42    3.0   202     4.7   739.4    0.00 
  86   16:30   0.10   45.9    42    2.9   226     7.1   739.5    0.00 
  86   16:40   0.09   45.4    46    2.3   251     5.2   739.5    0.24 
  86   16:50   0.13   44.5    50    3.3   237     6.5   739.5    1.06 
  86   17:00   0.07   43.7    53    2.3   249     5.4   739.6    0.00 
  86   17:10   0.20   44.0    54    1.5   257     3.4   739.5    0.00 
  86   17:20   0.20   45.0    52    1.2   191     3.3   739.4    0.00 
  86   17:30   0.11   45.1    51    1.2   322     2.6   739.3    0.00 
  86   17:40   0.02   41.1    63    2.4   340     3.4   739.4    0.00 
  86   17:50   0.02   39.0    72    2.5   336     3.8   739.4    0.00 
  86   18:00   0.02   38.2    73    1.4    19     3.1   739.4    0.00 
  86   18:10   0.02   36.7    78    2.1    87     3.1   739.5    0.00 
  86   18:20   0.01   37.1    79    1.4    76     2.4   739.8    0.00 
  86   18:30   0.00   37.1    80    1.7    93     2.7   739.8    0.00 
  86   18:40   0.00   37.6    79    1.8   157     3.4   739.9    0.00 
  86   18:50   0.00   38.0    77    1.7   129     3.0   740.0    0.00 
  86   19:00   0.00   37.7    78    2.3   122     3.4   740.0    0.00 
  86   19:10   0.00   37.8    77    1.8   119     2.7   740.1    0.00 
  86   19:20   0.00   37.9    76    0.5   102     1.0   740.1    0.00 
  86   19:30   0.00   37.9    77    0.8   162     2.0   740.2    0.00 
  86   19:40   0.00   38.1    77    1.9   206     3.4   740.3    0.00 
  86   19:50   0.00   38.0    79    1.5   204     2.4   740.2    0.00 
  86   20:00   0.00   36.7    82    1.3   144     2.2   740.1    0.00 
  86   20:10   0.00   35.8    86    0.8   303     1.5   740.0    0.00 
  86   20:20   0.00   35.6    88    0.8    10     1.9   740.1    0.00 
  86   20:30   0.00   35.6    88    1.0   337     1.5   740.1    0.00 
  86   20:40   0.00   35.8    88    0.9     5     1.2   740.1    0.00 
  86   20:50   0.00   35.6    89    0.6   352     1.1   740.1    0.00 
  86   21:00   0.00   36.0    88    0.6   308     0.9   740.2    0.00 
  86   21:10   0.00   35.6    88    0.9   123     1.8   740.3    0.00 
  86   21:20   0.00   34.6    91    1.3   167     2.0   740.3    0.00 
  86   21:30   0.00   35.1    91    0.9   221     1.2   740.2    0.00 
  86   21:40   0.00   35.1    91    1.1   164     1.5   740.2    0.00 
  86   21:50   0.00   34.6    92    0.7     8     1.4   740.2    0.00 
  86   22:00   0.00   34.1    94    0.6    80     1.9   740.2    0.00 
  86   22:10   0.00   33.9    95    0.8   358     1.2   740.1    0.00 
  86   22:20   0.00   33.8    95    0.8   274     1.6   739.9    0.00 
  86   22:30   0.00   32.5    95    0.7   197     1.6   739.9    0.00 
  86   22:40   0.00   32.4    97    0.2   187     0.8   739.9    0.00 
  86   22:50   0.00   31.9    97    0.3   173     0.9   739.9    0.00 
  86   23:00   0.00   31.6    98    0.3   144     0.7   739.9    0.00 
  86   23:10   0.00   31.5    98    0.4   154     0.7   739.8    0.00 
  86   23:20   0.00   30.4    98    0.5    15     1.0   739.7    0.00 
  86   23:30   0.00   28.5    97    0.4   326     0.9   739.6    0.00 
  86   23:40   0.00   29.3   100    0.3   248     0.9   739.6    0.00 
  86   23:50   0.00   30.0   100    1.0   193     1.5   739.6    0.00 
  87    0:00   0.00   30.5   100    1.2   190     2.3   739.6    0.00 
  87    0:10   0.00   29.1    98    1.1   358     1.7   739.4    0.00 
  87    0:20   0.00   26.2    97    0.9    78     1.3   739.4    0.00 
  87    0:30   0.00   26.3   100    0.6   277     1.3   739.4    0.00 
  87    0:40   0.00   27.3   100    0.4   320     1.1   739.3    0.00 
  87    0:50   0.00   26.9   100    0.3   135     0.7   739.2    0.00 
  87    1:00   0.00   26.6   100    0.6   331     1.7   739.1    0.00 
  87    1:10   0.00   24.9   100    0.8    18     1.8   739.0    0.00 
  87    1:20   0.00   24.5   100    0.7   132     1.3   738.9    0.00 
  87    1:30   0.00   25.5   100    0.2   330     0.9   738.8    0.00 
  87    1:40   0.00   25.3   100    0.6   339     1.3   738.8    0.00 
  87    1:50   0.00   24.6   100    0.4    86     0.9   738.8    0.00 
  87    2:00   0.00   23.9   100    0.8    13     1.7   738.8    0.00 
  87    2:10   0.00   24.1   100    0.2    62     0.7   738.7    0.00 
  87    2:20   0.00   24.3   100    0.3   153     0.8   738.6    0.00 
  87    2:30   0.00   24.5   100    0.6    51     1.1   738.5    0.00 
  87    2:40   0.00   25.7   100    0.8   330     1.3   738.5    0.00 
  87    2:50   0.00   26.3   100    0.4   345     1.1   738.4    0.00 
  87    3:00   0.00   26.3   100    1.0   135     1.6   738.4    0.00 
  87    3:10   0.00   26.1   100    0.4   145     1.2   738.3    0.00 
  87    3:20   0.00   26.2   100    0.8   202     1.6   738.3    0.00 
  87    3:30   0.00   26.1   100    1.4   206     1.9   738.3    0.00 
  87    3:40   0.00   25.6   100    1.1   207     1.7   738.3    0.00 
  87    3:50   0.00   24.2   100    0.3   293     0.9   738.3    0.00 
  87    4:00   0.00   23.5   100    0.1   356     1.0   738.3    0.00 
  87    4:10   0.00   24.0   100    0.7   339     1.5   738.2    0.00 
  87    4:20   0.00   23.8   100    0.5   358     0.8   738.1    0.00 
  87    4:30   0.00   23.4   100    0.6   343     1.2   738.0    0.00 
  87    4:40   0.00   23.5   100    0.2   337     0.6   738.0    0.00 
  87    4:50   0.00   23.5   100    0.1   337     0.7   738.0    0.00 
  87    5:00   0.00   23.3   100    0.4    13     0.8   737.8    0.00 
  87    5:10   0.00   23.2   100    0.4   339     1.0   737.9    0.00 
  87    5:20   0.00   23.0   100    0.1    68     0.7   737.8    0.00 
  87    5:30   0.00   22.6   100    0.2   337     0.8   737.7    0.00 
  87    5:40   0.00   22.1    99    0.0   333     0.4   737.7    0.00 
  87    5:50   0.00   21.9    99    0.1   301     0.4   737.7    0.00 
  87    6:00   0.00   21.2    97    0.9    15     1.2   737.7    0.00 
  87    6:10   0.01   20.9    98    0.8    30     1.1   737.8    0.00 
  87    6:20   0.02   21.4    99    0.6    75     1.2   737.8    0.00 
  87    6:30   0.02   21.8   100    0.7   231     1.3   737.9    0.00 
  87    6:40   0.02   23.4   100    1.3   190     2.0   738.0    0.00 
  87    6:50   0.02   24.4   100    1.8   183     2.6   738.0    0.00 
  87    7:00   0.03   24.9   100    1.2   189     2.0   738.1    0.00 
  87    7:10   0.07   25.2   100    1.2   346     1.8   738.1    0.00 
  87    7:20   0.08   25.4   100    1.5    44     2.6   737.9    0.00 
  87    7:30   0.08   25.6   100    1.7    13     3.0   737.9    0.00 
  87    7:40   0.10   26.0   100    1.3   356     2.1   737.9    0.00 
  87    7:50   0.11   27.2   100    1.6    16     2.9   737.8    0.00 
  87    8:00   0.09   28.5   100    1.6    17     2.5   737.6    0.00 
  87    8:10   0.09   28.6   100    1.8   139     2.5   737.8    0.00 
  87    8:20   0.07   28.5   100    2.0   191     3.1   737.9    0.00 
  87    8:30   0.08   28.7   100    0.7   230     1.4   737.8    0.00 
  87    8:40   0.08   29.2   100    1.5   223     2.9   737.7    0.00 
  87    8:50   0.10   30.0   100    2.1   182     3.5   737.8    0.00 
  87    9:00   0.11   30.2   100    2.0   226     2.9   737.9    0.00 
  87    9:10   0.12   30.2   100    2.2   232     2.9   737.9    0.00 
  87    9:20   0.07   30.2   100    2.0   218     2.7   738.0    0.00 
  87    9:30   0.04   30.5    99    2.0   198     2.5   738.2    0.00 
  87    9:40   0.07   30.6    99    1.4   204     2.1   738.2    0.00 
  87    9:50   0.07   31.0   100    2.2   204     4.4   738.1    0.00 
  87   10:00   0.05   30.8   100    2.8   212     5.6   738.1    0.00 
  87   10:10   0.04   30.6   100    3.3   209     5.4   738.3    0.00 
  87   10:20   0.05   29.7   100    2.9   214     5.4   738.3    0.00 
  87   10:30   0.07   29.8   100    2.2   187     3.2   738.2    0.00 
  87   10:40   0.06   29.8   100    2.0   181     3.0   738.2    0.00 
  87   10:50   0.07   29.9   100    2.1   180     3.4   738.2    0.00 
  87   11:00   0.07   29.9   100    1.9   196     3.7   738.2    0.00 
  87   11:10   0.11   30.4   100    1.2   189     2.2   738.2    0.00 
  87   11:20   0.15   31.0   100    1.0   165     1.7   738.1    0.00 
  87   11:30   0.19   31.2   100    0.8   146     1.6   737.9    0.00 
  87   11:40   0.22   30.3   100    1.7    78     2.5   737.9    0.00 
  87   11:50   0.27   30.1   100    2.0    54     3.0   737.7    0.00 
  87   12:00   0.30   30.6    99    2.8    30     3.8   737.5    0.00 
  87   12:10   0.28   30.1    98    2.6    74     3.5   737.4    0.00 
  87   12:20   0.29   30.3    99    3.0    74     3.8   737.3    0.00 

Return to Hidden Valley, Valles Caldera graphs page.


Western Regional Climate Center,wrcc@dri.edu